createdAt,value
2018-07-21T00:00:13.861Z,1005.6
2018-07-21T00:01:16.253Z,1005.5
2018-07-21T00:02:18.286Z,1005.6
2018-07-21T00:03:20.248Z,1005.6
2018-07-21T00:04:22.240Z,1005.6
2018-07-21T00:05:24.242Z,1005.5
2018-07-21T00:06:26.614Z,1005.5
2018-07-21T00:07:28.993Z,1005.5
2018-07-21T00:08:31.000Z,1005.6
2018-07-21T00:09:33.375Z,1005.5
2018-07-21T00:10:35.371Z,1005.6
2018-07-21T00:11:37.362Z,1005.5
2018-07-21T00:12:39.359Z,1005.6
2018-07-21T00:13:41.637Z,1005.6
2018-07-21T00:14:43.626Z,1005.6
2018-07-21T00:15:45.908Z,1005.6
2018-07-21T00:16:47.907Z,1005.6
2018-07-21T00:17:49.895Z,1005.6
2018-07-21T00:18:51.894Z,1005.5
2018-07-21T00:19:54.170Z,1005.5
2018-07-21T00:20:56.163Z,1005.5
2018-07-21T00:21:58.158Z,1005.5
2018-07-21T00:23:00.451Z,1005.6
2018-07-21T00:24:02.441Z,1005.6
2018-07-21T00:25:04.460Z,1005.6
2018-07-21T00:26:06.452Z,1005.6
2018-07-21T00:27:08.455Z,1005.6
2018-07-21T00:28:10.837Z,1005.7
2018-07-21T00:29:13.119Z,1005.7
2018-07-21T00:30:15.103Z,1005.7
2018-07-21T00:31:17.686Z,1005.7
2018-07-21T00:32:19.969Z,1005.6
2018-07-21T00:33:21.950Z,1005.6
2018-07-21T00:34:23.956Z,1005.6
2018-07-21T00:35:25.952Z,1005.6
2018-07-21T00:36:27.954Z,1005.6
2018-07-21T00:37:29.945Z,1005.6
2018-07-21T00:38:31.940Z,1005.7
2018-07-21T00:39:33.934Z,1005.6
2018-07-21T00:40:35.920Z,1005.6
2018-07-21T00:41:37.931Z,1005.7
2018-07-21T00:42:39.910Z,1005.7
2018-07-21T00:43:42.296Z,1005.7
2018-07-21T00:44:44.296Z,1005.7
2018-07-21T00:45:46.289Z,1005.7
2018-07-21T00:46:48.279Z,1005.7
2018-07-21T00:47:50.274Z,1005.7
2018-07-21T00:48:52.562Z,1005.7
2018-07-21T00:49:54.555Z,1005.7
2018-07-21T00:50:56.540Z,1005.7
2018-07-21T00:51:58.536Z,1005.7
2018-07-21T00:53:00.816Z,1005.7
2018-07-21T00:54:02.808Z,1005.6
2018-07-21T00:55:04.810Z,1005.7
2018-07-21T00:56:07.193Z,1005.6
2018-07-21T00:57:09.185Z,1005.6
2018-07-21T00:58:11.189Z,1005.6
2018-07-21T00:59:13.180Z,1005.7
2018-07-21T01:00:15.173Z,1005.7
2018-07-21T01:01:17.163Z,1005.7
2018-07-21T01:02:19.463Z,1005.7
2018-07-21T01:03:21.457Z,1005.7
2018-07-21T01:04:23.455Z,1005.7
2018-07-21T01:05:25.457Z,1005.7
2018-07-21T01:06:27.440Z,1005.6
2018-07-21T01:07:29.445Z,1005.7
2018-07-21T01:08:31.441Z,1005.6
2018-07-21T01:09:33.440Z,1005.6
2018-07-21T01:10:35.433Z,1005.6
2018-07-21T01:11:37.434Z,1005.6
2018-07-21T01:12:39.702Z,1005.6
2018-07-21T01:13:41.692Z,1005.6
2018-07-21T01:14:43.698Z,1005.6
2018-07-21T01:15:45.686Z,1005.5
2018-07-21T01:16:48.347Z,1005.6
2018-07-21T01:17:50.347Z,1005.5
2018-07-21T01:18:52.344Z,1005.6
2018-07-21T01:19:54.718Z,1005.5
2018-07-21T01:20:56.998Z,1005.5
2018-07-21T01:21:58.986Z,1005.5
2018-07-21T01:23:00.983Z,1005.5
2018-07-21T01:24:03.010Z,1005.5
2018-07-21T01:25:05.034Z,1005.5
2018-07-21T01:26:07.026Z,1005.6
2018-07-21T01:27:09.031Z,1005.6
2018-07-21T01:28:11.317Z,1005.6
2018-07-21T01:29:13.592Z,1005.6
2018-07-21T01:30:15.593Z,1005.6
2018-07-21T01:31:17.869Z,1005.6
2018-07-21T01:32:20.144Z,1005.6
2018-07-21T01:33:22.137Z,1005.6
2018-07-21T01:34:24.140Z,1005.5
2018-07-21T01:35:26.132Z,1005.5
2018-07-21T01:36:28.125Z,1005.5
2018-07-21T01:37:30.121Z,1005.5
2018-07-21T01:38:32.113Z,1005.6
2018-07-21T01:39:34.116Z,1005.5
2018-07-21T01:40:36.104Z,1005.5
2018-07-21T01:41:38.101Z,1005.5
2018-07-21T01:42:40.378Z,1005.5
2018-07-21T01:43:42.376Z,1005.5
2018-07-21T01:44:44.372Z,1005.5
2018-07-21T01:45:46.375Z,1005.5
2018-07-21T01:46:48.935Z,1005.5
2018-07-21T01:47:51.196Z,1005.5
2018-07-21T01:48:53.200Z,1005.6
2018-07-21T01:49:55.197Z,1005.5
2018-07-21T01:50:57.188Z,1005.5
2018-07-21T01:51:59.478Z,1005.6
2018-07-21T01:53:01.479Z,1005.6
2018-07-21T01:54:03.472Z,1005.6
2018-07-21T01:55:05.470Z,1005.6
2018-07-21T01:56:07.466Z,1005.6
2018-07-21T01:57:09.450Z,1005.5
2018-07-21T01:58:11.446Z,1005.6
2018-07-21T01:59:13.450Z,1005.6
2018-07-21T02:00:15.440Z,1005.6
2018-07-21T02:01:17.738Z,1005.6
2018-07-21T02:02:19.734Z,1005.7
2018-07-21T02:03:21.733Z,1005.6
2018-07-21T02:04:23.714Z,1005.6
2018-07-21T02:05:25.712Z,1005.6
2018-07-21T02:06:27.709Z,1005.6
2018-07-21T02:07:29.707Z,1005.6
2018-07-21T02:08:32.081Z,1005.6
2018-07-21T02:09:34.082Z,1005.6
2018-07-21T02:10:36.358Z,1005.6
2018-07-21T02:11:38.356Z,1005.6
2018-07-21T02:12:40.694Z,1005.6
2018-07-21T02:13:42.903Z,1005.6
2018-07-21T02:14:44.899Z,1005.6
2018-07-21T02:15:46.889Z,1005.5
2018-07-21T02:16:49.171Z,1005.6
2018-07-21T02:17:51.159Z,1005.6
2018-07-21T02:18:53.160Z,1005.6
2018-07-21T02:19:55.464Z,1005.6
2018-07-21T02:20:57.450Z,1005.6
2018-07-21T02:21:59.457Z,1005.6
2018-07-21T02:23:01.838Z,1005.7
2018-07-21T02:24:03.847Z,1005.6
2018-07-21T02:25:05.831Z,1005.6
2018-07-21T02:26:07.833Z,1005.7
2018-07-21T02:27:10.209Z,1005.6
2018-07-21T02:28:12.599Z,1005.6
2018-07-21T02:29:14.589Z,1005.6
2018-07-21T02:30:16.574Z,1005.7
2018-07-21T02:31:18.573Z,1005.7
2018-07-21T02:32:20.873Z,1005.7
2018-07-21T02:33:23.169Z,1005.7
2018-07-21T02:34:25.167Z,1005.7
2018-07-21T02:35:27.165Z,1005.6
2018-07-21T02:36:29.542Z,1005.6
2018-07-21T02:37:32.133Z,1005.6
2018-07-21T02:38:34.122Z,1005.5
2018-07-21T02:39:36.505Z,1005.6
2018-07-21T02:40:38.788Z,1005.6
2018-07-21T02:41:41.066Z,1005.5
2018-07-21T02:42:43.633Z,1005.5
2018-07-21T02:43:45.634Z,1005.5
2018-07-21T02:44:47.915Z,1005.5
2018-07-21T02:45:49.896Z,1005.5
2018-07-21T02:46:51.900Z,1005.5
2018-07-21T02:47:54.175Z,1005.5
2018-07-21T02:48:56.173Z,1005.5
2018-07-21T02:49:58.169Z,1005.5
2018-07-21T02:51:00.833Z,1005.4
2018-07-21T02:52:03.124Z,1005.4
2018-07-21T02:53:05.402Z,1005.4
2018-07-21T02:54:07.412Z,1005.5
2018-07-21T02:55:09.677Z,1005.5
2018-07-21T02:56:12.339Z,1005.5
2018-07-21T02:57:14.338Z,1005.5
2018-07-21T02:58:16.331Z,1005.4
2018-07-21T02:59:18.321Z,1005.5
2018-07-21T03:00:20.324Z,1005.5
2018-07-21T03:01:22.314Z,1005.5
2018-07-21T03:02:24.311Z,1005.5
2018-07-21T03:03:26.320Z,1005.5
2018-07-21T03:04:28.609Z,1005.6
2018-07-21T03:05:30.600Z,1005.6
2018-07-21T03:06:32.603Z,1005.6
2018-07-21T03:07:34.980Z,1005.6
2018-07-21T03:08:36.971Z,1005.6
2018-07-21T03:09:38.971Z,1005.6
2018-07-21T03:10:40.957Z,1005.6
2018-07-21T03:11:43.548Z,1005.6
2018-07-21T03:12:45.539Z,1005.6
2018-07-21T03:13:47.819Z,1005.7
2018-07-21T03:14:49.811Z,1005.6
2018-07-21T03:15:52.095Z,1005.7
2018-07-21T03:16:54.104Z,1005.6
2018-07-21T03:17:56.080Z,1005.7
2018-07-21T03:18:58.074Z,1005.7
2018-07-21T03:20:00.078Z,1005.7
2018-07-21T03:21:02.353Z,1005.7
2018-07-21T03:22:04.354Z,1005.7
2018-07-21T03:23:06.356Z,1005.6
2018-07-21T03:24:08.723Z,1005.6
2018-07-21T03:25:11.001Z,1005.6
2018-07-21T03:26:13.275Z,1005.6
2018-07-21T03:27:15.567Z,1005.6
2018-07-21T03:28:17.552Z,1005.5
2018-07-21T03:29:19.934Z,1005.5
2018-07-21T03:30:21.930Z,1005.5
2018-07-21T03:31:23.924Z,1005.5
2018-07-21T03:32:25.908Z,1005.5
2018-07-21T03:33:27.908Z,1005.4
2018-07-21T03:34:29.898Z,1005.5
2018-07-21T03:35:31.891Z,1005.4
2018-07-21T03:36:33.897Z,1005.4
2018-07-21T03:37:35.890Z,1005.5
2018-07-21T03:38:37.885Z,1005.5
2018-07-21T03:39:39.887Z,1005.4
2018-07-21T03:40:41.878Z,1005.4
2018-07-21T03:41:44.152Z,1005.4
2018-07-21T03:42:46.431Z,1005.5
2018-07-21T03:43:48.413Z,1005.5
2018-07-21T03:44:50.412Z,1005.5
2018-07-21T03:45:53.092Z,1005.5
2018-07-21T03:46:55.091Z,1005.5
2018-07-21T03:47:57.468Z,1005.5
2018-07-21T03:48:59.468Z,1005.5
2018-07-21T03:50:01.458Z,1005.5
2018-07-21T03:51:03.449Z,1005.5
2018-07-21T03:52:05.457Z,1005.5
2018-07-21T03:53:07.439Z,1005.5
2018-07-21T03:54:09.433Z,1005.5
2018-07-21T03:55:11.737Z,1005.5
2018-07-21T03:56:13.705Z,1005.5
2018-07-21T03:57:15.697Z,1005.5
2018-07-21T03:58:18.082Z,1005.5
2018-07-21T03:59:20.359Z,1005.5
2018-07-21T04:00:22.921Z,1005.5
2018-07-21T04:01:24.928Z,1005.5
2018-07-21T04:02:26.920Z,1005.5
2018-07-21T04:03:28.907Z,1005.5
2018-07-21T04:04:30.906Z,1005.5
2018-07-21T04:05:32.903Z,1005.5
2018-07-21T04:06:34.892Z,1005.5
2018-07-21T04:07:37.477Z,1005.5
2018-07-21T04:08:39.467Z,1005.5
2018-07-21T04:09:41.451Z,1005.5
2018-07-21T04:10:43.446Z,1005.5
2018-07-21T04:11:45.441Z,1005.5
2018-07-21T04:12:47.432Z,1005.6
2018-07-21T04:13:49.434Z,1005.5
2018-07-21T04:14:51.436Z,1005.5
2018-07-21T04:15:53.423Z,1005.5
2018-07-21T04:16:55.429Z,1005.5
2018-07-21T04:17:57.416Z,1005.5
2018-07-21T04:18:59.412Z,1005.5
2018-07-21T04:20:01.405Z,1005.5
2018-07-21T04:21:03.406Z,1005.4
2018-07-21T04:22:05.396Z,1005.5
2018-07-21T04:23:07.391Z,1005.5
2018-07-21T04:24:09.395Z,1005.4
2018-07-21T04:25:11.758Z,1005.4
2018-07-21T04:26:13.765Z,1005.4
2018-07-21T04:27:15.756Z,1005.4
2018-07-21T04:28:18.141Z,1005.3
2018-07-21T04:29:20.132Z,1005.4
2018-07-21T04:30:22.133Z,1005.4
2018-07-21T04:31:24.122Z,1005.4
2018-07-21T04:32:26.111Z,1005.4
2018-07-21T04:33:28.116Z,1005.4
2018-07-21T04:34:30.385Z,1005.4
2018-07-21T04:35:32.381Z,1005.4
2018-07-21T04:36:34.373Z,1005.4
2018-07-21T04:37:36.368Z,1005.4
2018-07-21T04:38:38.369Z,1005.3
2018-07-21T04:39:40.357Z,1005.3
2018-07-21T04:40:42.361Z,1005.4
2018-07-21T04:41:44.352Z,1005.3
2018-07-21T04:42:46.339Z,1005.3
2018-07-21T04:43:48.724Z,1005.4
2018-07-21T04:44:50.720Z,1005.4
2018-07-21T04:45:52.706Z,1005.4
2018-07-21T04:46:54.713Z,1005.4
2018-07-21T04:47:56.713Z,1005.4
2018-07-21T04:48:58.704Z,1005.5
2018-07-21T04:50:01.100Z,1005.4
2018-07-21T04:51:03.090Z,1005.4
2018-07-21T04:52:05.088Z,1005.5
2018-07-21T04:53:07.080Z,1005.5
2018-07-21T04:54:09.081Z,1005.5
2018-07-21T04:55:11.069Z,1005.5
2018-07-21T04:56:13.065Z,1005.5
2018-07-21T04:57:15.449Z,1005.5
2018-07-21T04:58:17.441Z,1005.5
2018-07-21T04:59:19.443Z,1005.5
2018-07-21T05:00:21.441Z,1005.5
2018-07-21T05:01:23.441Z,1005.5
2018-07-21T05:02:25.712Z,1005.6
2018-07-21T05:03:27.712Z,1005.6
2018-07-21T05:04:29.702Z,1005.7
2018-07-21T05:05:31.695Z,1005.7
2018-07-21T05:06:33.707Z,1005.7
2018-07-21T05:07:35.693Z,1005.7
2018-07-21T05:08:37.688Z,1005.7
2018-07-21T05:09:39.990Z,1005.7
2018-07-21T05:10:41.985Z,1005.7
2018-07-21T05:11:43.975Z,1005.7
2018-07-21T05:12:45.970Z,1005.7
2018-07-21T05:13:47.972Z,1005.7
2018-07-21T05:14:49.964Z,1005.7
2018-07-21T05:15:51.953Z,1005.7
2018-07-21T05:16:53.952Z,1005.7
2018-07-21T05:17:55.955Z,1005.7
2018-07-21T05:18:57.947Z,1005.7
2018-07-21T05:19:59.983Z,1005.7
2018-07-21T05:21:01.953Z,1005.7
2018-07-21T05:22:03.944Z,1005.6
2018-07-21T05:23:05.952Z,1005.7
2018-07-21T05:24:07.949Z,1005.7
2018-07-21T05:25:09.947Z,1005.6
2018-07-21T05:26:11.940Z,1005.7
2018-07-21T05:27:14.327Z,1005.7
2018-07-21T05:28:16.318Z,1005.7
2018-07-21T05:29:18.317Z,1005.7
2018-07-21T05:30:20.318Z,1005.7
2018-07-21T05:31:22.301Z,1005.7
2018-07-21T05:32:24.317Z,1005.7
2018-07-21T05:33:26.642Z,1005.7
2018-07-21T05:34:28.599Z,1005.7
2018-07-21T05:35:30.594Z,1005.8
2018-07-21T05:36:32.596Z,1005.7
2018-07-21T05:37:34.974Z,1005.8
2018-07-21T05:38:36.965Z,1005.8
2018-07-21T05:39:38.973Z,1005.8
2018-07-21T05:40:40.964Z,1005.8
2018-07-21T05:41:42.967Z,1005.8
2018-07-21T05:42:45.531Z,1005.8
2018-07-21T05:43:47.828Z,1005.8
2018-07-21T05:44:49.817Z,1005.8
2018-07-21T05:45:51.822Z,1005.8
2018-07-21T05:46:53.814Z,1005.8
2018-07-21T05:47:55.812Z,1005.8
2018-07-21T05:48:57.821Z,1005.8
2018-07-21T05:50:00.128Z,1005.9
2018-07-21T05:51:02.131Z,1005.8
2018-07-21T05:52:04.121Z,1005.9
2018-07-21T05:53:06.497Z,1005.9
2018-07-21T05:54:08.819Z,1005.8
2018-07-21T05:55:10.822Z,1005.9
2018-07-21T05:56:12.830Z,1005.9
2018-07-21T05:57:15.126Z,1005.9
2018-07-21T05:58:17.127Z,1005.8
2018-07-21T05:59:19.126Z,1005.9
2018-07-21T06:00:21.127Z,1005.9
2018-07-21T06:01:23.124Z,1005.9
2018-07-21T06:02:25.623Z,1005.9
2018-07-21T06:03:27.628Z,1005.9
2018-07-21T06:04:29.910Z,1005.9
2018-07-21T06:05:32.196Z,1005.9
2018-07-21T06:06:34.476Z,1005.9
2018-07-21T06:07:36.480Z,1005.9
2018-07-21T06:08:39.187Z,1005.9
2018-07-21T06:09:41.169Z,1005.9
2018-07-21T06:10:43.446Z,1005.9
2018-07-21T06:11:45.446Z,1005.9
2018-07-21T06:12:47.453Z,1005.9
2018-07-21T06:13:49.444Z,1006
2018-07-21T06:14:51.453Z,1005.9
2018-07-21T06:15:53.451Z,1006
2018-07-21T06:16:55.457Z,1006
2018-07-21T06:17:58.070Z,1006
2018-07-21T06:19:00.082Z,1006
2018-07-21T06:20:02.362Z,1006
2018-07-21T06:21:04.363Z,1005.9
2018-07-21T06:22:06.376Z,1005.9
2018-07-21T06:23:08.380Z,1006
2018-07-21T06:24:10.374Z,1006
2018-07-21T06:25:12.891Z,1006
2018-07-21T06:26:15.304Z,1006
2018-07-21T06:27:17.299Z,1005.9
2018-07-21T06:28:19.689Z,1006
2018-07-21T06:29:21.677Z,1006
2018-07-21T06:30:23.684Z,1006
2018-07-21T06:31:25.688Z,1006
2018-07-21T06:32:27.690Z,1006
2018-07-21T06:33:30.072Z,1005.9
2018-07-21T06:34:32.086Z,1006
2018-07-21T06:35:34.472Z,1006
2018-07-21T06:36:36.460Z,1006
2018-07-21T06:37:38.475Z,1006
2018-07-21T06:38:40.463Z,1006
2018-07-21T06:39:42.465Z,1006
2018-07-21T06:40:44.464Z,1005.9
2018-07-21T06:41:46.757Z,1006
2018-07-21T06:42:48.751Z,1006
2018-07-21T06:43:50.780Z,1006
2018-07-21T06:44:53.520Z,1006
2018-07-21T06:45:55.510Z,1006
2018-07-21T06:46:57.520Z,1006
2018-07-21T06:47:59.800Z,1006
2018-07-21T06:49:01.801Z,1006.1
2018-07-21T06:50:03.807Z,1006
2018-07-21T06:51:06.240Z,1006
2018-07-21T06:52:08.239Z,1006
2018-07-21T06:53:10.639Z,1006
2018-07-21T06:54:12.632Z,1006
2018-07-21T06:55:14.627Z,1006.1
2018-07-21T06:56:16.632Z,1006
2018-07-21T06:57:18.634Z,1006
2018-07-21T06:58:20.631Z,1006
2018-07-21T06:59:22.640Z,1006
2018-07-21T07:00:24.649Z,1006
2018-07-21T07:01:26.652Z,1006
2018-07-21T07:02:28.670Z,1006
2018-07-21T07:03:30.667Z,1006
2018-07-21T07:04:32.696Z,1006
2018-07-21T07:05:34.676Z,1006
2018-07-21T07:06:36.684Z,1006
2018-07-21T07:07:38.694Z,1006
2018-07-21T07:08:40.698Z,1006
2018-07-21T07:09:42.696Z,1006
2018-07-21T07:10:44.713Z,1006
2018-07-21T07:11:46.702Z,1006
2018-07-21T07:12:48.987Z,1006
2018-07-21T07:13:50.997Z,1006
2018-07-21T07:14:53.285Z,1006
2018-07-21T07:15:55.285Z,1006
2018-07-21T07:16:57.298Z,1006
2018-07-21T07:17:59.306Z,1006
2018-07-21T07:19:01.299Z,1006
2018-07-21T07:20:03.315Z,1006
2018-07-21T07:21:05.320Z,1006
2018-07-21T07:22:07.319Z,1006.1
2018-07-21T07:23:09.324Z,1006.1
2018-07-21T07:24:11.332Z,1006.1
2018-07-21T07:25:13.613Z,1006.1
2018-07-21T07:26:15.907Z,1006.1
2018-07-21T07:27:17.914Z,1006.1
2018-07-21T07:28:19.904Z,1006.1
2018-07-21T07:29:21.908Z,1006.1
2018-07-21T07:30:23.919Z,1006.1
2018-07-21T07:31:26.199Z,1006.1
2018-07-21T07:32:28.208Z,1006.1
2018-07-21T07:33:30.503Z,1006.1
2018-07-21T07:34:32.571Z,1006.1
2018-07-21T07:35:34.586Z,1006.1
2018-07-21T07:36:36.589Z,1006.1
2018-07-21T07:37:38.592Z,1006.1
2018-07-21T07:38:40.591Z,1006
2018-07-21T07:39:42.601Z,1006.1
2018-07-21T07:40:44.599Z,1006.1
2018-07-21T07:41:46.604Z,1006.1
2018-07-21T07:42:48.614Z,1006.1
2018-07-21T07:43:50.622Z,1006.1
2018-07-21T07:44:53.001Z,1006.1
2018-07-21T07:45:55.005Z,1006.1
2018-07-21T07:46:57.290Z,1006.1
2018-07-21T07:47:59.299Z,1006.1
2018-07-21T07:49:01.592Z,1006.1
2018-07-21T07:50:03.877Z,1006.1
2018-07-21T07:51:06.178Z,1006.1
2018-07-21T07:52:08.170Z,1006.1
2018-07-21T07:53:10.574Z,1006.1
2018-07-21T07:54:12.578Z,1006.1
2018-07-21T07:55:14.578Z,1006.1
2018-07-21T07:56:16.591Z,1006.1
2018-07-21T07:57:18.604Z,1006.1
2018-07-21T07:58:20.884Z,1006.1
2018-07-21T07:59:23.280Z,1006.1
2018-07-21T08:00:25.333Z,1006.1
2018-07-21T08:01:27.284Z,1006.1
2018-07-21T08:02:29.575Z,1006.2
2018-07-21T08:03:31.865Z,1006.2
2018-07-21T08:04:34.253Z,1006.2
2018-07-21T08:05:36.261Z,1006.1
2018-07-21T08:06:38.277Z,1006.2
2018-07-21T08:07:40.273Z,1006.2
2018-07-21T08:08:42.289Z,1006.2
2018-07-21T08:09:44.294Z,1006.2
2018-07-21T08:10:46.303Z,1006.2
2018-07-21T08:11:48.349Z,1006.3
2018-07-21T08:12:50.753Z,1006.2
2018-07-21T08:13:52.754Z,1006.2
2018-07-21T08:14:54.765Z,1006.2
2018-07-21T08:15:56.778Z,1006.2
2018-07-21T08:16:58.769Z,1006.2
2018-07-21T08:18:00.786Z,1006.2
2018-07-21T08:19:02.791Z,1006.2
2018-07-21T08:20:05.091Z,1006.2
2018-07-21T08:21:07.093Z,1006.2
2018-07-21T08:22:09.104Z,1006.2
2018-07-21T08:23:11.399Z,1006.2
2018-07-21T08:24:13.416Z,1006.1
2018-07-21T08:25:15.410Z,1006.2
2018-07-21T08:26:17.818Z,1006.2
2018-07-21T08:27:19.824Z,1006.2
2018-07-21T08:28:21.821Z,1006.3
2018-07-21T08:29:23.828Z,1006.2
2018-07-21T08:30:26.222Z,1006.2
2018-07-21T08:31:28.228Z,1006.2
2018-07-21T08:32:30.237Z,1006.1
2018-07-21T08:33:32.246Z,1006.1
2018-07-21T08:34:34.254Z,1006.1
2018-07-21T08:35:36.246Z,1006.1
2018-07-21T08:36:38.561Z,1006.1
2018-07-21T08:37:40.560Z,1006.1
2018-07-21T08:38:42.571Z,1006.1
2018-07-21T08:39:44.584Z,1006.1
2018-07-21T08:40:46.588Z,1006.1
2018-07-21T08:41:48.604Z,1006.1
2018-07-21T08:42:50.603Z,1006.1
2018-07-21T08:43:52.608Z,1006.1
2018-07-21T08:44:54.996Z,1006.1
2018-07-21T08:45:57.024Z,1006.1
2018-07-21T08:46:59.009Z,1006.1
2018-07-21T08:48:01.016Z,1006
2018-07-21T08:49:03.424Z,1006.1
2018-07-21T08:50:05.420Z,1006.1
2018-07-21T08:51:07.444Z,1006.1
2018-07-21T08:52:09.448Z,1006
2018-07-21T08:53:11.468Z,1006
2018-07-21T08:54:13.469Z,1006
2018-07-21T08:55:15.874Z,1006
2018-07-21T08:56:18.149Z,1006
2018-07-21T08:57:20.150Z,1006.1
2018-07-21T08:58:22.169Z,1006.1
2018-07-21T08:59:24.169Z,1006
2018-07-21T09:00:26.558Z,1006
2018-07-21T09:01:28.573Z,1006
2018-07-21T09:02:30.580Z,1006
2018-07-21T09:03:32.750Z,1006
2018-07-21T09:04:35.153Z,1006
2018-07-21T09:05:37.974Z,1006
2018-07-21T09:06:40.379Z,1005.9
2018-07-21T09:07:42.848Z,1005.9
2018-07-21T09:08:45.249Z,1005.9
2018-07-21T09:09:47.701Z,1006
2018-07-21T09:10:50.076Z,1005.9
2018-07-21T09:11:52.544Z,1006
2018-07-21T09:12:54.921Z,1006
2018-07-21T09:13:57.427Z,1006
2018-07-21T09:14:59.428Z,1006
2018-07-21T09:16:02.081Z,1006
2018-07-21T09:17:04.092Z,1006
2018-07-21T09:18:06.496Z,1005.9
2018-07-21T09:19:08.496Z,1005.9
2018-07-21T09:20:10.512Z,1005.9
2018-07-21T09:21:12.513Z,1005.9
2018-07-21T09:22:14.519Z,1005.9
2018-07-21T09:23:16.538Z,1005.9
2018-07-21T09:24:18.536Z,1005.8
2018-07-21T09:25:20.548Z,1005.8
2018-07-21T09:26:22.550Z,1005.8
2018-07-21T09:27:24.563Z,1005.8
2018-07-21T09:28:26.566Z,1005.8
2018-07-21T09:29:28.577Z,1005.8
2018-07-21T09:30:30.591Z,1005.8
2018-07-21T09:31:32.589Z,1005.9
2018-07-21T09:32:34.674Z,1005.8
2018-07-21T09:33:36.684Z,1005.8
2018-07-21T09:34:38.688Z,1005.8
2018-07-21T09:35:40.695Z,1005.8
2018-07-21T09:36:42.710Z,1005.8
2018-07-21T09:37:44.720Z,1005.8
2018-07-21T09:38:46.729Z,1005.8
2018-07-21T09:39:48.742Z,1005.8
2018-07-21T09:40:50.761Z,1005.8
2018-07-21T09:41:52.772Z,1005.8
2018-07-21T09:42:54.779Z,1005.8
2018-07-21T09:43:56.800Z,1005.7
2018-07-21T09:44:59.106Z,1005.8
2018-07-21T09:46:01.115Z,1005.8
2018-07-21T09:47:03.132Z,1005.7
2018-07-21T09:48:05.134Z,1005.8
2018-07-21T09:49:07.461Z,1005.7
2018-07-21T09:50:09.764Z,1005.7
2018-07-21T09:51:12.060Z,1005.7
2018-07-21T09:52:14.351Z,1005.7
2018-07-21T09:53:16.369Z,1005.7
2018-07-21T09:54:18.767Z,1005.7
2018-07-21T09:55:20.782Z,1005.7
2018-07-21T09:56:22.804Z,1005.7
2018-07-21T09:57:24.805Z,1005.7
2018-07-21T09:58:26.817Z,1005.7
2018-07-21T09:59:28.825Z,1005.7
2018-07-21T10:00:30.848Z,1005.7
2018-07-21T10:01:32.921Z,1005.7
2018-07-21T10:02:34.884Z,1005.7
2018-07-21T10:03:36.903Z,1005.7
2018-07-21T10:04:38.911Z,1005.7
2018-07-21T10:05:40.939Z,1005.7
2018-07-21T10:06:42.957Z,1005.7
2018-07-21T10:07:44.969Z,1005.7
2018-07-21T10:08:46.988Z,1005.7
2018-07-21T10:09:49.008Z,1005.7
2018-07-21T10:10:51.404Z,1005.7
2018-07-21T10:11:53.426Z,1005.8
2018-07-21T10:12:55.726Z,1005.8
2018-07-21T10:13:57.732Z,1005.8
2018-07-21T10:14:59.747Z,1005.7
2018-07-21T10:16:02.044Z,1005.7
2018-07-21T10:17:04.063Z,1005.7
2018-07-21T10:18:06.075Z,1005.7
2018-07-21T10:19:08.367Z,1005.7
2018-07-21T10:20:10.392Z,1005.7
2018-07-21T10:21:12.404Z,1005.8
2018-07-21T10:22:14.524Z,1005.8
2018-07-21T10:23:16.799Z,1005.8
2018-07-21T10:24:19.116Z,1005.8
2018-07-21T10:25:22.207Z,1005.7
2018-07-21T10:26:23.154Z,1005.7
2018-07-21T10:27:25.554Z,1005.8
2018-07-21T10:28:27.607Z,1005.8
2018-07-21T10:29:29.605Z,1005.8
2018-07-21T10:30:31.619Z,1005.8
2018-07-21T10:31:33.639Z,1005.8
2018-07-21T10:32:35.652Z,1005.8
2018-07-21T10:33:38.196Z,1005.8
2018-07-21T10:34:40.080Z,1005.8
2018-07-21T10:35:42.109Z,1005.8
2018-07-21T10:36:44.140Z,1005.7
2018-07-21T10:37:46.146Z,1005.7
2018-07-21T10:38:48.177Z,1005.7
2018-07-21T10:39:50.194Z,1005.7
2018-07-21T10:40:52.211Z,1005.7
2018-07-21T10:41:54.232Z,1005.7
2018-07-21T10:42:56.536Z,1005.6
2018-07-21T10:43:58.879Z,1005.7
2018-07-21T10:45:00.902Z,1005.6
2018-07-21T10:46:02.921Z,1005.6
2018-07-21T10:47:05.221Z,1005.6
2018-07-21T10:48:07.245Z,1005.6
2018-07-21T10:49:09.568Z,1005.5
2018-07-21T10:50:11.579Z,1005.6
2018-07-21T10:51:13.603Z,1005.6
2018-07-21T10:52:15.628Z,1005.5
2018-07-21T10:53:17.959Z,1005.5
2018-07-21T10:54:20.269Z,1005.5
2018-07-21T10:55:22.294Z,1005.5
2018-07-21T10:56:24.316Z,1005.5
2018-07-21T10:57:26.338Z,1005.5
2018-07-21T10:58:28.364Z,1005.5
2018-07-21T10:59:30.394Z,1005.4
2018-07-21T11:00:32.419Z,1005.4
2018-07-21T11:01:34.437Z,1005.5
2018-07-21T11:02:36.472Z,1005.5
2018-07-21T11:03:38.482Z,1005.5
2018-07-21T11:04:40.818Z,1005.4
2018-07-21T11:05:42.921Z,1005.4
2018-07-21T11:06:44.967Z,1005.4
2018-07-21T11:07:46.985Z,1005.4
2018-07-21T11:08:49.011Z,1005.4
2018-07-21T11:09:51.305Z,1005.3
2018-07-21T11:10:53.348Z,1005.3
2018-07-21T11:11:55.379Z,1005.3
2018-07-21T11:12:57.400Z,1005.3
2018-07-21T11:13:59.415Z,1005.3
2018-07-21T11:15:01.769Z,1005.3
2018-07-21T11:16:03.744Z,1005.3
2018-07-21T11:17:05.758Z,1005.3
2018-07-21T11:18:08.171Z,1005.3
2018-07-21T11:19:10.191Z,1005.3
2018-07-21T11:20:12.204Z,1005.2
2018-07-21T11:21:14.223Z,1005.2
2018-07-21T11:22:16.253Z,1005.2
2018-07-21T11:23:18.264Z,1005.2
2018-07-21T11:24:20.676Z,1005.2
2018-07-21T11:25:22.695Z,1005.2
2018-07-21T11:26:24.716Z,1005.2
2018-07-21T11:27:26.745Z,1005.2
2018-07-21T11:28:29.146Z,1005.2
2018-07-21T11:29:31.179Z,1005.2
2018-07-21T11:30:33.195Z,1005.2
2018-07-21T11:31:35.601Z,1005.3
2018-07-21T11:32:37.621Z,1005.2
2018-07-21T11:33:39.926Z,1005.2
2018-07-21T11:34:41.952Z,1005.2
2018-07-21T11:35:44.097Z,1005.2
2018-07-21T11:36:46.483Z,1005.2
2018-07-21T11:37:48.504Z,1005.2
2018-07-21T11:38:50.538Z,1005.2
2018-07-21T11:39:52.831Z,1005.3
2018-07-21T11:40:54.855Z,1005.3
2018-07-21T11:41:57.148Z,1005.2
2018-07-21T11:42:59.165Z,1005.2
2018-07-21T11:44:01.197Z,1005.2
2018-07-21T11:45:03.208Z,1005.3
2018-07-21T11:46:05.231Z,1005.3
2018-07-21T11:47:07.542Z,1005.3
2018-07-21T11:48:09.558Z,1005.3
2018-07-21T11:49:11.576Z,1005.3
2018-07-21T11:50:13.610Z,1005.3
2018-07-21T11:51:15.919Z,1005.3
2018-07-21T11:52:18.242Z,1005.3
2018-07-21T11:53:20.275Z,1005.2
2018-07-21T11:54:22.297Z,1005.2
2018-07-21T11:55:24.700Z,1005.2
2018-07-21T11:56:26.722Z,1005.2
2018-07-21T11:57:29.122Z,1005.2
2018-07-21T11:58:31.139Z,1005.2
2018-07-21T11:59:33.168Z,1005.2
2018-07-21T12:00:35.178Z,1005.2
2018-07-21T12:01:37.493Z,1005.2
2018-07-21T12:02:39.513Z,1005.2
2018-07-21T12:03:41.542Z,1005.2
2018-07-21T12:04:43.561Z,1005.2
2018-07-21T12:05:45.600Z,1005.3
2018-07-21T12:06:47.615Z,1005.2
2018-07-21T12:07:49.633Z,1005.2
2018-07-21T12:08:52.042Z,1005.2
2018-07-21T12:09:54.076Z,1005.3
2018-07-21T12:10:56.096Z,1005.2
2018-07-21T12:11:58.124Z,1005.2
2018-07-21T12:13:00.146Z,1005.3
2018-07-21T12:14:02.210Z,1005.2
2018-07-21T12:15:04.491Z,1005.2
2018-07-21T12:16:08.822Z,1005.2
2018-07-21T12:17:12.090Z,1005.3
2018-07-21T12:18:14.100Z,1005.2
2018-07-21T12:19:16.125Z,1005.2
2018-07-21T12:20:18.168Z,1005.2
2018-07-21T12:21:20.563Z,1005.3
2018-07-21T12:22:22.582Z,1005.2
2018-07-21T12:23:24.990Z,1005.2
2018-07-21T12:24:27.009Z,1005.1
2018-07-21T12:25:29.027Z,1005.1
2018-07-21T12:26:31.108Z,1005.1
2018-07-21T12:27:33.433Z,1005.1
2018-07-21T12:28:35.697Z,1005.1
2018-07-21T12:29:37.722Z,1005.1
2018-07-21T12:30:39.741Z,1005.1
2018-07-21T12:31:41.758Z,1005.1
2018-07-21T12:32:44.063Z,1005
2018-07-21T12:33:46.119Z,1005
2018-07-21T12:34:48.496Z,1005.1
2018-07-21T12:35:50.519Z,1005.1
2018-07-21T12:36:52.542Z,1005
2018-07-21T12:37:54.558Z,1005
2018-07-21T12:38:56.584Z,1005
2018-07-21T12:39:58.633Z,1005
2018-07-21T12:41:00.625Z,1005
2018-07-21T12:42:02.942Z,1005
2018-07-21T12:43:04.951Z,1005
2018-07-21T12:44:07.272Z,1005
2018-07-21T12:45:09.289Z,1004.9
2018-07-21T12:46:11.316Z,1004.9
2018-07-21T12:47:13.664Z,1004.9
2018-07-21T12:48:16.085Z,1004.9
2018-07-21T12:49:18.110Z,1004.9
2018-07-21T12:50:20.124Z,1004.9
2018-07-21T12:51:22.155Z,1004.9
2018-07-21T12:52:24.558Z,1004.9
2018-07-21T12:53:26.575Z,1004.9
2018-07-21T12:54:28.597Z,1004.9
2018-07-21T12:55:30.626Z,1004.9
2018-07-21T12:56:32.693Z,1004.9
2018-07-21T12:57:34.751Z,1004.9
2018-07-21T12:58:37.383Z,1004.9
2018-07-21T12:59:39.949Z,1004.9
2018-07-21T13:00:42.254Z,1004.9